Time;durP1;ratioP1;P1;durP2;ratioP2;P2;SDS_P1;SDS_P2;PMS_P1;PMS_P2;Temp;Humidity;BMP_temperature;BMP_pressure;BME280_temperature;BME280_humidity;BME280_pressure;Samples;Min_cycle;Max_cycle;Signal;HPM_P1;HPM_P2
2022/02/18 00:01:01;;;;;;;23.40;4.47;;;9.70;99.90;;;;;;5091122;28;20461;-75
2022/02/18 00:03:27;;;;;;;20.73;4.57;;;9.70;99.90;;;;;;5082644;28;20028;-75
2022/02/18 00:05:54;;;;;;;22.85;4.97;;;9.60;99.90;;;;;;5086143;28;20059;-77
2022/02/18 00:08:22;;;;;;;26.75;4.68;;;9.60;99.90;;;;;;5081730;28;20022;-77
2022/02/18 00:10:48;;;;;;;22.88;4.70;;;9.60;99.90;;;;;;5088217;28;20034;-78
2022/02/18 00:13:14;;;;;;;20.98;4.32;;;9.50;99.90;;;;;;5087668;28;20024;-77
2022/02/18 00:15:40;;;;;;;21.20;4.70;;;9.60;99.90;;;;;;5090187;28;20089;-78
2022/02/18 00:18:06;;;;;;;29.00;5.63;;;9.60;99.90;;;;;;5080496;28;20106;-77
2022/02/18 00:20:34;;;;;;;24.60;4.53;;;9.60;99.90;;;;;;5083121;28;20484;-78
2022/02/18 00:23:01;;;;;;;29.15;5.28;;;9.60;99.90;;;;;;5087617;28;20016;-78
2022/02/18 00:25:27;;;;;;;25.65;5.00;;;9.60;99.90;;;;;;5091492;28;20036;-78
2022/02/18 00:27:53;;;;;;;39.13;5.72;;;9.60;99.90;;;;;;5091394;28;20031;-77
2022/02/18 00:30:19;;;;;;;26.88;5.25;;;9.70;99.90;;;;;;5089701;28;20024;-77
2022/02/18 00:32:45;;;;;;;24.77;4.38;;;9.60;99.90;;;;;;5089448;28;20081;-78
2022/02/18 00:35:11;;;;;;;26.58;5.28;;;9.60;99.90;;;;;;5083973;28;20031;-78
2022/02/18 00:37:37;;;;;;;26.45;4.97;;;9.60;99.90;;;;;;5091220;28;20028;-77
2022/02/18 00:40:03;;;;;;;14.40;3.83;;;9.60;99.90;;;;;;5087969;28;20439;-77
2022/02/18 00:42:29;;;;;;;29.67;4.53;;;9.70;99.90;;;;;;5090918;28;20059;-78
2022/02/18 00:44:55;;;;;;;20.30;4.53;;;9.70;99.90;;;;;;5085516;28;20110;-77
2022/02/18 00:47:21;;;;;;;20.80;4.78;;;9.70;99.90;;;;;;5084435;28;20403;-77
2022/02/18 00:49:47;;;;;;;27.65;5.32;;;9.70;99.90;;;;;;5092525;28;20020;-77
2022/02/18 00:52:15;;;;;;;32.05;5.57;;;9.70;99.90;;;;;;5085532;28;20469;-77
2022/02/18 00:54:41;;;;;;;30.33;5.57;;;9.70;99.90;;;;;;5090373;28;20013;-77
2022/02/18 00:57:07;;;;;;;21.20;4.15;;;9.70;99.90;;;;;;5092765;28;20032;-77
2022/02/18 00:59:33;;;;;;;29.75;6.10;;;9.70;99.90;;;;;;5089645;28;20074;-77
2022/02/18 01:01:59;;;;;;;27.63;5.68;;;9.70;99.90;;;;;;5092527;28;20035;-77
2022/02/18 01:04:24;;;;;;;32.63;6.95;;;9.80;99.90;;;;;;5087683;28;20099;-77
2022/02/18 01:06:50;;;;;;;28.35;5.50;;;9.80;99.90;;;;;;5096012;28;20048;-77
2022/02/18 01:09:16;;;;;;;33.22;6.03;;;9.70;99.90;;;;;;5092747;28;20025;-77
2022/02/18 01:11:41;;;;;;;41.42;6.25;;;9.70;99.90;;;;;;5086878;28;20474;-78
2022/02/18 01:14:07;;;;;;;30.58;5.65;;;9.80;99.90;;;;;;5089691;28;20032;-78
2022/02/18 01:16:33;;;;;;;26.45;5.72;;;9.80;99.90;;;;;;5093318;28;20039;-77
2022/02/18 01:18:59;;;;;;;29.75;6.93;;;9.90;99.90;;;;;;5085366;28;20034;-77
2022/02/18 01:21:25;;;;;;;33.78;6.72;;;9.90;99.90;;;;;;5088040;28;20457;-77
2022/02/18 01:23:51;;;;;;;34.42;6.18;;;9.90;99.90;;;;;;5091227;28;20521;-77
2022/02/18 01:26:17;;;;;;;25.17;5.88;;;9.90;99.90;;;;;;5088171;28;20021;-78
2022/02/18 01:28:43;;;;;;;29.05;6.07;;;9.80;99.90;;;;;;5089129;28;20031;-78
2022/02/18 01:31:09;;;;;;;28.63;5.05;;;9.80;99.90;;;;;;5084169;28;20032;-78
2022/02/18 01:33:35;;;;;;;33.65;6.38;;;9.90;99.90;;;;;;5085538;28;20028;-77
2022/02/18 01:36:01;;;;;;;34.65;6.30;;;9.90;99.90;;;;;;5086225;28;20035;-78
2022/02/18 01:38:26;;;;;;;35.38;6.15;;;10.00;99.90;;;;;;5084911;28;20039;-77
2022/02/18 01:40:52;;;;;;;39.15;6.32;;;9.80;99.90;;;;;;5089427;28;20119;-78
2022/02/18 01:43:18;;;;;;;41.47;7.55;;;9.80;99.90;;;;;;5089068;28;20412;-78
2022/02/18 01:45:44;;;;;;;33.50;6.20;;;9.80;99.90;;;;;;5088817;28;20056;-77
2022/02/18 01:48:10;;;;;;;34.10;6.10;;;9.90;99.90;;;;;;5088748;28;20484;-78
2022/02/18 01:50:36;;;;;;;37.88;6.63;;;9.90;99.90;;;;;;5087540;28;20035;-77
2022/02/18 01:53:04;;;;;;;28.88;5.55;;;9.90;99.90;;;;;;5093944;28;20020;-78
2022/02/18 01:55:31;;;;;;;44.10;6.57;;;9.90;99.90;;;;;;5089669;28;20097;-78
2022/02/18 01:57:58;;;;;;;32.35;6.07;;;9.90;99.90;;;;;;5086189;28;20375;-78
2022/02/18 02:00:29;;;;;;;42.10;6.90;;;9.90;99.90;;;;;;5092640;28;20020;-78
2022/02/18 02:02:56;;;;;;;30.48;5.38;;;9.90;99.90;;;;;;5091409;28;20015;-77
2022/02/18 02:05:23;;;;;;;38.80;6.53;;;9.90;99.90;;;;;;5086901;28;20070;-77
2022/02/18 02:07:49;;;;;;;32.83;6.28;;;9.90;99.90;;;;;;5087130;28;20024;-77
2022/02/18 02:10:16;;;;;;;42.42;7.22;;;10.00;99.90;;;;;;5089571;28;20046;-77
2022/02/18 02:12:51;;;;;;;29.58;5.55;;;10.00;99.90;;;;;;5084824;28;20370;-77
2022/02/18 02:15:21;;;;;;;35.30;6.00;;;10.00;99.90;;;;;;5086663;28;20028;-79
2022/02/18 02:17:47;;;;;;;46.15;6.35;;;10.00;99.90;;;;;;5093333;28;20020;-79
2022/02/18 02:20:13;;;;;;;42.55;6.07;;;10.00;99.90;;;;;;5090056;28;20039;-78
2022/02/18 02:22:39;;;;;;;36.70;6.95;;;10.00;99.90;;;;;;5091871;28;20365;-79
2022/02/18 02:25:06;;;;;;;41.78;5.65;;;9.90;99.90;;;;;;5084265;28;20016;-78
2022/02/18 02:27:32;;;;;;;39.75;7.45;;;9.90;99.90;;;;;;5090669;28;20012;-79
2022/02/18 02:29:58;;;;;;;44.88;7.32;;;9.80;99.90;;;;;;5092634;28;20039;-79
2022/02/18 02:32:24;;;;;;;43.15;7.15;;;9.80;99.90;;;;;;5088695;28;20024;-78
2022/02/18 02:34:50;;;;;;;42.63;6.78;;;9.90;99.90;;;;;;5083111;28;20091;-78
2022/02/18 02:37:16;;;;;;;43.38;5.78;;;9.90;99.90;;;;;;5088165;28;20039;-79
2022/02/18 02:39:42;;;;;;;45.17;7.07;;;9.90;99.90;;;;;;5087573;28;20028;-79
2022/02/18 02:42:08;;;;;;;37.10;6.85;;;9.90;99.90;;;;;;5087189;28;20050;-78
2022/02/18 02:44:35;;;;;;;36.50;5.85;;;9.70;99.90;;;;;;5091590;28;20027;-78
2022/02/18 02:47:02;;;;;;;38.25;6.55;;;9.80;99.90;;;;;;5088634;28;20016;-79
2022/02/18 02:49:27;;;;;;;38.38;6.40;;;9.90;99.90;;;;;;5087126;28;20495;-78
2022/02/18 02:51:54;;;;;;;36.00;6.78;;;10.00;99.90;;;;;;5082098;28;20033;-78
2022/02/18 02:54:20;;;;;;;32.63;6.22;;;9.90;99.90;;;;;;5087465;28;20027;-78
2022/02/18 02:56:46;;;;;;;45.42;7.88;;;9.90;99.90;;;;;;5086596;28;20043;-77
2022/02/18 02:59:11;;;;;;;38.88;8.68;;;10.00;99.90;;;;;;5087757;28;20023;-77
2022/02/18 03:01:37;;;;;;;41.30;7.05;;;10.00;99.90;;;;;;5085258;28;20417;-78
2022/02/18 03:04:03;;;;;;;40.40;8.40;;;10.00;99.90;;;;;;5086028;28;20017;-78
2022/02/18 03:06:29;;;;;;;41.78;7.55;;;9.90;99.90;;;;;;5086475;28;20102;-77
2022/02/18 03:08:55;;;;;;;37.35;9.20;;;10.00;99.90;;;;;;5086342;28;20476;-77
2022/02/18 03:11:22;;;;;;;33.15;7.75;;;10.10;99.90;;;;;;5090841;28;20025;-78
2022/02/18 03:13:51;;;;;;;39.38;6.63;;;10.10;99.90;;;;;;5085601;28;20032;-79
2022/02/18 03:16:18;;;;;;;51.92;8.10;;;10.10;99.90;;;;;;5084881;28;20040;-78
2022/02/18 03:18:45;;;;;;;42.22;7.53;;;10.00;99.90;;;;;;5087877;28;20032;-78
2022/02/18 03:21:11;;;;;;;32.05;8.55;;;10.10;99.90;;;;;;5084340;28;20036;-78
2022/02/18 03:23:38;;;;;;;38.28;7.65;;;10.10;99.90;;;;;;5089744;28;20088;-78
2022/02/18 03:26:04;;;;;;;52.22;8.10;;;10.10;99.90;;;;;;5087065;28;20533;-77
2022/02/18 03:28:30;;;;;;;36.75;8.07;;;10.00;99.90;;;;;;5090531;28;20069;-77
2022/02/18 03:30:56;;;;;;;35.95;7.07;;;10.00;99.90;;;;;;5088736;28;20032;-78
2022/02/18 03:33:22;;;;;;;32.55;6.95;;;9.90;99.90;;;;;;5094871;28;20419;-77
2022/02/18 03:35:48;;;;;;;39.38;7.80;;;9.90;99.90;;;;;;5081159;28;20485;-78
2022/02/18 03:38:14;;;;;;;43.35;7.22;;;9.90;99.90;;;;;;5086830;28;20065;-79
2022/02/18 03:40:39;;;;;;;35.10;7.05;;;10.00;99.90;;;;;;5089778;28;20123;-78
2022/02/18 03:43:05;;;;;;;32.55;6.25;;;10.00;99.90;;;;;;5085823;28;20028;-79
2022/02/18 03:45:31;;;;;;;42.13;6.50;;;10.00;99.90;;;;;;5086429;28;20032;-79
2022/02/18 03:47:56;;;;;;;38.03;6.88;;;10.00;99.90;;;;;;5084708;28;20055;-78
2022/02/18 03:50:22;;;;;;;31.15;5.32;;;10.00;99.90;;;;;;5087791;28;20491;-79
2022/02/18 03:52:51;;;;;;;40.47;6.72;;;9.90;99.90;;;;;;5092334;28;20024;-79
2022/02/18 03:55:18;;;;;;;39.35;5.90;;;10.00;99.90;;;;;;5086373;28;20052;-78
2022/02/18 03:57:43;;;;;;;27.10;6.28;;;9.90;99.90;;;;;;5085493;28;20031;-77
2022/02/18 04:00:10;;;;;;;30.83;5.13;;;9.90;99.90;;;;;;5093192;28;20069;-78
2022/02/18 04:02:37;;;;;;;29.75;5.45;;;9.90;99.90;;;;;;5095027;28;20032;-78
2022/02/18 04:05:03;;;;;;;37.15;5.15;;;9.90;99.90;;;;;;5087288;28;20025;-78
2022/02/18 04:07:29;;;;;;;28.27;5.93;;;10.00;99.90;;;;;;5092074;28;20035;-78
2022/02/18 04:09:55;;;;;;;29.02;5.80;;;9.90;99.90;;;;;;5085563;28;20373;-78
2022/02/18 04:12:21;;;;;;;35.17;6.00;;;9.90;99.90;;;;;;5090718;28;20047;-78
2022/02/18 04:14:47;;;;;;;28.45;6.68;;;9.90;99.90;;;;;;5087555;28;20492;-79
2022/02/18 04:17:12;;;;;;;29.25;5.40;;;9.90;99.90;;;;;;5093413;28;20119;-78
2022/02/18 04:19:38;;;;;;;35.45;6.60;;;9.90;99.90;;;;;;5092679;28;20016;-77
2022/02/18 04:22:04;;;;;;;31.23;5.80;;;9.90;99.90;;;;;;5088017;28;20033;-78
2022/02/18 04:24:30;;;;;;;33.80;5.95;;;9.90;99.90;;;;;;5090383;28;20354;-78
2022/02/18 04:26:56;;;;;;;35.60;5.45;;;10.00;99.90;;;;;;5086025;28;20109;-78
2022/02/18 04:29:22;;;;;;;29.75;5.15;;;9.90;99.90;;;;;;5088628;28;20074;-78
2022/02/18 04:31:48;;;;;;;24.77;4.43;;;9.90;99.90;;;;;;5089973;28;20053;-79
2022/02/18 04:34:14;;;;;;;34.63;6.03;;;9.80;99.90;;;;;;5091550;28;20473;-78
2022/02/18 04:36:40;;;;;;;27.58;6.20;;;9.80;99.90;;;;;;5092418;28;20047;-79
2022/02/18 04:39:07;;;;;;;23.83;5.25;;;9.70;99.90;;;;;;5093000;28;20070;-78
2022/02/18 04:41:33;;;;;;;22.75;4.63;;;9.70;99.90;;;;;;5093131;28;20035;-79
2022/02/18 04:44:00;;;;;;;34.63;5.20;;;9.80;99.90;;;;;;5087855;28;20032;-78
2022/02/18 04:46:26;;;;;;;28.75;5.25;;;9.80;99.90;;;;;;5090596;28;20465;-79
2022/02/18 04:48:52;;;;;;;23.10;4.97;;;9.90;99.90;;;;;;5086116;28;20099;-78
2022/02/18 04:51:18;;;;;;;32.10;5.68;;;9.90;99.90;;;;;;5091743;28;20028;-80
2022/02/18 04:53:44;;;;;;;25.42;4.63;;;9.90;99.90;;;;;;5091892;28;20377;-78
2022/02/18 04:56:10;;;;;;;29.08;5.10;;;9.80;99.90;;;;;;5092302;28;20036;-78
2022/02/18 04:58:37;;;;;;;28.15;5.13;;;9.80;99.90;;;;;;5094549;28;20093;-77
2022/02/18 05:01:04;;;;;;;28.92;5.43;;;9.90;99.90;;;;;;5084561;28;20032;-77
2022/02/18 05:03:29;;;;;;;30.77;6.18;;;9.90;99.90;;;;;;5089595;28;20504;-78
2022/02/18 05:05:55;;;;;;;28.35;5.50;;;9.80;99.90;;;;;;5090312;28;20130;-80
2022/02/18 05:08:21;;;;;;;20.05;4.68;;;9.80;99.90;;;;;;5085628;28;20114;-78
2022/02/18 05:10:47;;;;;;;22.90;4.55;;;9.80;99.90;;;;;;5087402;28;20028;-78
2022/02/18 05:13:12;;;;;;;32.33;5.75;;;9.70;99.90;;;;;;5092119;28;20020;-78
2022/02/18 05:15:38;;;;;;;25.98;5.90;;;9.70;99.90;;;;;;5092877;28;20047;-78
2022/02/18 05:18:04;;;;;;;21.08;4.88;;;9.80;99.90;;;;;;5086982;28;20074;-78
2022/02/18 05:20:30;;;;;;;31.75;5.43;;;9.80;99.90;;;;;;5091538;28;20024;-78
2022/02/18 05:22:58;;;;;;;31.30;5.85;;;9.80;99.90;;;;;;5087438;28;20507;-79
2022/02/18 05:25:25;;;;;;;20.63;4.65;;;9.80;99.90;;;;;;5089895;28;20078;-78
2022/02/18 05:27:52;;;;;;;21.17;4.93;;;9.80;99.90;;;;;;5084385;28;20028;-78
2022/02/18 05:30:18;;;;;;;31.42;5.10;;;9.80;99.90;;;;;;5093175;28;20024;-79
2022/02/18 05:32:44;;;;;;;24.23;5.60;;;9.80;99.90;;;;;;5086673;28;20366;-79
2022/02/18 05:35:09;;;;;;;23.25;5.38;;;9.80;99.90;;;;;;5086467;28;20081;-79
2022/02/18 05:37:35;;;;;;;26.05;5.65;;;9.90;99.90;;;;;;5090485;28;20035;-78
2022/02/18 05:40:01;;;;;;;30.48;5.75;;;9.90;99.90;;;;;;5089072;28;20605;-78
2022/02/18 05:42:27;;;;;;;32.13;6.28;;;9.90;99.90;;;;;;5092893;28;20032;-78
2022/02/18 05:44:52;;;;;;;28.00;5.38;;;9.90;99.90;;;;;;5091882;28;20496;-79
2022/02/18 05:47:18;;;;;;;27.15;5.07;;;9.90;99.90;;;;;;5093449;28;20323;-79
2022/02/18 05:49:43;;;;;;;26.15;5.38;;;9.90;99.90;;;;;;5084916;28;20028;-79
2022/02/18 05:52:09;;;;;;;25.05;4.75;;;9.90;99.90;;;;;;5085520;28;20435;-79
2022/02/18 05:54:35;;;;;;;20.65;5.25;;;9.80;99.90;;;;;;5087541;28;20025;-78
2022/02/18 05:57:00;;;;;;;27.55;5.47;;;9.80;99.90;;;;;;5090562;28;20032;-79
2022/02/18 05:59:26;;;;;;;28.30;5.57;;;9.80;99.90;;;;;;5093468;28;20102;-79
2022/02/18 06:01:52;;;;;;;32.90;5.95;;;9.80;99.90;;;;;;5087090;28;20443;-79
2022/02/18 06:04:17;;;;;;;27.77;5.53;;;9.80;99.90;;;;;;5087759;28;20028;-79
2022/02/18 06:06:44;;;;;;;27.98;5.72;;;9.80;99.90;;;;;;5088822;28;20016;-79
2022/02/18 06:09:11;;;;;;;24.17;4.95;;;9.70;99.90;;;;;;5086922;28;20043;-78
2022/02/18 06:11:36;;;;;;;31.10;5.30;;;9.60;99.90;;;;;;5090803;28;20034;-79
2022/02/18 06:14:02;;;;;;;35.50;6.28;;;9.60;99.90;;;;;;5084091;28;20024;-80
2022/02/18 06:16:28;;;;;;;25.70;5.82;;;9.70;99.90;;;;;;5090817;28;20044;-78
2022/02/18 06:18:55;;;;;;;30.73;6.25;;;9.70;99.90;;;;;;5087688;28;20488;-79
2022/02/18 06:21:20;;;;;;;32.88;6.07;;;9.80;99.90;;;;;;5087130;28;20035;-79
2022/02/18 06:23:46;;;;;;;33.10;5.40;;;9.70;99.90;;;;;;5087845;28;20583;-80
2022/02/18 06:26:12;;;;;;;32.95;5.72;;;9.70;99.90;;;;;;5086727;28;20118;-80
2022/02/18 06:28:39;;;;;;;31.75;5.80;;;9.70;99.90;;;;;;5090210;28;20028;-78
2022/02/18 06:31:05;;;;;;;32.47;5.88;;;9.60;99.90;;;;;;5085628;28;20581;-76
2022/02/18 06:33:30;;;;;;;28.90;5.43;;;9.70;99.90;;;;;;5091373;28;20111;-78
2022/02/18 06:35:56;;;;;;;41.20;7.57;;;9.80;99.90;;;;;;5084808;28;20665;-79
2022/02/18 06:38:22;;;;;;;37.92;4.90;;;9.70;99.90;;;;;;5089378;28;20028;-79
2022/02/18 06:40:47;;;;;;;32.63;6.03;;;9.70;99.90;;;;;;5090400;28;20384;-78
2022/02/18 06:43:13;;;;;;;29.35;5.40;;;9.80;99.90;;;;;;5090734;28;20039;-78
2022/02/18 06:45:38;;;;;;;26.08;6.25;;;9.80;99.90;;;;;;5085615;28;20434;-78
2022/02/18 06:48:05;;;;;;;33.58;5.82;;;9.90;99.90;;;;;;5089256;28;20116;-79
2022/02/18 06:50:31;;;;;;;28.02;5.90;;;9.80;99.90;;;;;;5085222;28;20404;-78
2022/02/18 06:52:57;;;;;;;22.60;4.75;;;9.80;99.90;;;;;;5084523;28;20024;-78
2022/02/18 06:55:24;;;;;;;29.63;5.25;;;9.80;99.90;;;;;;5086430;28;20051;-78
2022/02/18 06:57:53;;;;;;;26.85;6.25;;;9.90;99.90;;;;;;5086863;28;20039;-78
2022/02/18 07:00:19;;;;;;;26.67;5.00;;;9.90;99.90;;;;;;5084142;28;20028;-79
2022/02/18 07:02:45;;;;;;;31.73;5.35;;;9.90;99.90;;;;;;5086550;28;20012;-79
2022/02/18 07:05:12;;;;;;;35.80;6.30;;;9.90;99.90;;;;;;5083269;28;20559;-79
2022/02/18 07:07:39;;;;;;;28.60;5.25;;;9.90;99.90;;;;;;5086800;28;20028;-79
2022/02/18 07:10:06;;;;;;;26.58;5.65;;;10.00;99.90;;;;;;5087898;28;20034;-79
2022/02/18 07:12:32;;;;;;;28.38;5.57;;;10.00;99.90;;;;;;5088264;28;20023;-78
2022/02/18 07:14:57;;;;;;;26.75;5.35;;;10.10;99.90;;;;;;5088408;28;20024;-78
2022/02/18 07:17:26;;;;;;;24.95;5.03;;;10.10;99.90;;;;;;5088339;28;20027;-79
2022/02/18 07:19:53;;;;;;;24.42;5.03;;;10.10;99.90;;;;;;5083154;28;20035;-79
2022/02/18 07:22:19;;;;;;;22.33;4.57;;;10.10;99.90;;;;;;5088826;28;20388;-79
2022/02/18 07:24:46;;;;;;;25.20;4.20;;;10.00;99.90;;;;;;5088619;28;20055;-79
2022/02/18 07:27:13;;;;;;;17.42;3.92;;;10.10;99.90;;;;;;5082662;28;20024;-78
2022/02/18 07:29:39;;;;;;;24.73;4.50;;;10.10;99.90;;;;;;5089491;28;20051;-79
2022/02/18 07:32:05;;;;;;;27.00;4.32;;;10.10;99.90;;;;;;5087805;28;20023;-79
2022/02/18 07:34:31;;;;;;;17.90;4.40;;;10.20;99.90;;;;;;5088706;28;20024;-79
2022/02/18 07:36:56;;;;;;;13.10;3.85;;;10.20;99.90;;;;;;5088742;28;20032;-78
2022/02/18 07:39:22;;;;;;;25.25;4.53;;;10.30;99.90;;;;;;5092584;28;20059;-79
2022/02/18 07:41:48;;;;;;;14.48;3.85;;;10.30;99.90;;;;;;5087635;28;20029;-78
2022/02/18 07:44:14;;;;;;;14.77;3.67;;;10.30;99.90;;;;;;5095238;28;20032;-78
2022/02/18 07:46:39;;;;;;;14.32;3.58;;;10.40;99.90;;;;;;5091277;28;20036;-78
2022/02/18 07:49:05;;;;;;;15.18;3.60;;;10.40;99.90;;;;;;5092507;28;20020;-76
2022/02/18 07:51:31;;;;;;;11.65;3.30;;;10.40;99.90;;;;;;5092726;28;20031;-77
2022/02/18 07:53:57;;;;;;;20.88;3.33;;;10.40;99.90;;;;;;5094252;28;20554;-76
2022/02/18 07:56:23;;;;;;;16.85;3.47;;;10.50;99.90;;;;;;5090816;28;20496;-75
2022/02/18 07:58:49;;;;;;;14.07;3.42;;;10.50;99.90;;;;;;5090325;28;20476;-76
2022/02/18 08:01:18;;;;;;;11.57;3.00;;;10.50;99.90;;;;;;5088309;28;20110;-77
2022/02/18 08:03:45;;;;;;;13.00;2.75;;;10.60;99.90;;;;;;5094347;28;20031;-77
2022/02/18 08:06:11;;;;;;;10.52;2.63;;;10.60;99.90;;;;;;5087326;28;20021;-76
2022/02/18 08:08:39;;;;;;;7.75;2.38;;;10.70;99.90;;;;;;5088169;28;20457;-76
2022/02/18 08:11:05;;;;;;;7.32;2.67;;;10.70;99.90;;;;;;5094437;28;20024;-76
2022/02/18 08:13:30;;;;;;;6.70;2.25;;;10.70;99.90;;;;;;5092794;28;20081;-78
2022/02/18 08:15:56;;;;;;;7.60;2.45;;;10.80;99.90;;;;;;5092955;28;20075;-77
2022/02/18 08:18:22;;;;;;;10.88;2.33;;;10.80;99.90;;;;;;5092245;28;20487;-76
2022/02/18 08:20:49;;;;;;;10.40;2.58;;;10.90;99.90;;;;;;5091354;28;20029;-77
2022/02/18 08:23:14;;;;;;;8.52;2.28;;;10.90;99.90;;;;;;5094319;28;20008;-76
2022/02/18 08:25:40;;;;;;;9.93;2.10;;;11.00;99.90;;;;;;5091703;28;20019;-77
2022/02/18 08:28:06;;;;;;;7.78;1.80;;;11.00;99.90;;;;;;5092731;28;20392;-76
2022/02/18 08:30:32;;;;;;;8.50;2.08;;;11.00;99.90;;;;;;5092338;28;20024;-78
2022/02/18 08:32:59;;;;;;;5.10;1.50;;;11.00;99.90;;;;;;5093269;28;20518;-77
2022/02/18 08:35:26;;;;;;;2.92;1.30;;;11.00;99.90;;;;;;5092417;28;20071;-78
2022/02/18 08:37:51;;;;;;;5.88;1.60;;;11.10;99.90;;;;;;5088267;28;20577;-77
2022/02/18 08:40:17;;;;;;;6.65;1.48;;;11.10;99.90;;;;;;5093389;28;20036;-77
2022/02/18 08:42:43;;;;;;;3.90;1.55;;;11.20;99.90;;;;;;5086404;28;20438;-77
2022/02/18 08:45:08;;;;;;;3.63;1.50;;;11.20;99.90;;;;;;5093750;28;20032;-76
2022/02/18 08:47:34;;;;;;;3.72;1.65;;;11.20;99.90;;;;;;5091045;28;20553;-79
2022/02/18 08:50:00;;;;;;;2.83;1.50;;;11.20;99.90;;;;;;5088971;28;20031;-75
2022/02/18 08:52:25;;;;;;;2.85;1.48;;;11.20;99.90;;;;;;5087326;28;20028;-77
2022/02/18 08:54:51;;;;;;;2.42;1.20;;;11.30;99.90;;;;;;5091869;28;20138;-77
2022/02/18 08:57:17;;;;;;;2.85;1.50;;;11.40;99.90;;;;;;5091930;28;20040;-77
2022/02/18 08:59:42;;;;;;;5.68;1.40;;;11.40;99.90;;;;;;5090607;28;20020;-77
2022/02/18 09:02:10;;;;;;;2.30;1.27;;;11.40;99.90;;;;;;5085308;28;20028;-76
2022/02/18 09:04:36;;;;;;;2.70;1.13;;;11.40;99.90;;;;;;5091395;28;20051;-78
2022/02/18 09:07:02;;;;;;;3.55;1.25;;;11.40;99.90;;;;;;5088713;28;20511;-76
2022/02/18 09:09:28;;;;;;;7.10;1.30;;;11.50;99.90;;;;;;5093944;28;20095;-76
2022/02/18 09:11:53;;;;;;;2.17;1.23;;;11.50;99.90;;;;;;5090745;28;20138;-77
2022/02/18 09:14:19;;;;;;;1.52;0.90;;;11.50;99.90;;;;;;5092421;28;20409;-77
2022/02/18 09:16:45;;;;;;;1.15;0.95;;;11.50;99.90;;;;;;5092112;28;20374;-77
2022/02/18 09:19:12;;;;;;;2.33;1.17;;;11.60;99.90;;;;;;5088140;28;20024;-77
2022/02/18 09:21:38;;;;;;;4.25;1.40;;;11.70;99.90;;;;;;5088101;28;20241;-76
2022/02/18 09:24:04;;;;;;;1.85;1.30;;;11.80;99.90;;;;;;5091623;28;20103;-77
2022/02/18 09:26:29;;;;;;;1.48;1.10;;;11.80;99.90;;;;;;5085052;28;20052;-76
2022/02/18 09:28:56;;;;;;;2.35;1.08;;;11.80;99.90;;;;;;5088583;28;20027;-76
2022/02/18 09:31:22;;;;;;;1.85;0.90;;;11.90;99.90;;;;;;5092042;28;20130;-76
2022/02/18 09:33:49;;;;;;;1.77;0.88;;;11.90;99.90;;;;;;5092210;28;20115;-77
2022/02/18 09:36:15;;;;;;;3.90;1.13;;;11.90;99.90;;;;;;5090229;28;20400;-77
2022/02/18 09:38:42;;;;;;;1.38;1.00;;;11.90;99.90;;;;;;5092643;28;20058;-77
2022/02/18 09:41:08;;;;;;;2.78;0.80;;;11.90;99.90;;;;;;5090702;28;20080;-76
2022/02/18 09:43:36;;;;;;;0.70;0.65;;;12.00;99.90;;;;;;5092202;28;20024;-77
2022/02/18 09:46:03;;;;;;;3.33;0.95;;;12.00;99.90;;;;;;5089057;28;20027;-77
2022/02/18 09:48:29;;;;;;;2.30;0.70;;;12.00;99.90;;;;;;5089221;28;20137;-77
2022/02/18 09:50:56;;;;;;;2.15;0.90;;;12.10;99.90;;;;;;5086832;28;20107;-76
2022/02/18 09:53:22;;;;;;;1.48;0.90;;;12.10;99.90;;;;;;5094010;28;20024;-76
2022/02/18 09:55:48;;;;;;;1.60;0.70;;;12.20;99.90;;;;;;5090391;28;20035;-76
2022/02/18 09:58:22;;;;;;;2.38;0.80;;;12.20;99.90;;;;;;5090434;28;20036;-76
2022/02/18 10:00:48;;;;;;;5.10;0.80;;;12.30;99.90;;;;;;5092168;28;20022;-75
2022/02/18 10:03:14;;;;;;;2.78;0.60;;;12.30;99.90;;;;;;5090686;28;20144;-76
2022/02/18 10:05:41;;;;;;;0.82;0.82;;;12.30;99.90;;;;;;5086953;28;20476;-76
2022/02/18 10:08:11;;;;;;;3.35;0.93;;;12.30;99.90;;;;;;5091724;28;20357;-76
2022/02/18 10:10:39;;;;;;;0.88;0.70;;;12.40;99.90;;;;;;5087126;28;20032;-76
2022/02/18 10:13:05;;;;;;;1.65;0.60;;;12.40;99.90;;;;;;5092344;28;20028;-76
2022/02/18 10:15:44;;;;;;;1.48;0.80;;;12.50;99.90;;;;;;5089227;28;20035;-77
2022/02/18 10:18:10;;;;;;;0.85;0.57;;;12.50;99.90;;;;;;5087399;28;20024;-76
2022/02/18 10:20:41;;;;;;;1.88;0.60;;;12.50;99.90;;;;;;5087137;28;20040;-77
2022/02/18 10:23:08;;;;;;;2.20;0.80;;;12.60;99.90;;;;;;5092408;28;20500;-77
2022/02/18 10:25:43;;;;;;;3.38;1.08;;;12.60;99.90;;;;;;5087275;28;20023;-78
2022/02/18 10:28:11;;;;;;;0.75;0.73;;;12.60;99.90;;;;;;5084322;28;20059;-76
2022/02/18 10:30:37;;;;;;;1.17;0.80;;;12.60;99.90;;;;;;5089994;28;20814;-77
2022/02/18 10:33:13;;;;;;;1.40;0.60;;;12.70;99.90;;;;;;5091690;28;20091;-76
2022/02/18 10:35:40;;;;;;;3.25;0.85;;;12.70;99.90;;;;;;5090150;28;20024;-78
2022/02/18 10:38:07;;;;;;;1.48;0.60;;;12.70;99.90;;;;;;5086207;28;20380;-80
2022/02/18 10:40:44;;;;;;;1.30;0.57;;;12.70;99.90;;;;;;5085311;28;20013;-78
2022/02/18 10:43:12;;;;;;;2.97;0.70;;;12.80;99.90;;;;;;5091005;28;20031;-77
2022/02/18 10:46:10;;;;;;;1.08;0.88;;;12.80;99.90;;;;;;5092260;28;20213;-78
2022/02/18 10:48:50;;;;;;;0.70;0.55;;;12.80;99.90;;;;;;5073013;28;20032;-80
2022/02/18 10:51:30;;;;;;;1.30;0.52;;;12.80;99.90;;;;;;5089523;28;20530;-80
2022/02/18 10:53:57;;;;;;;1.88;0.80;;;12.90;99.90;;;;;;5087652;28;20381;-79
2022/02/18 10:56:28;;;;;;;0.70;0.70;;;12.90;99.90;;;;;;5083252;28;20484;-79
2022/02/18 10:58:54;;;;;;;2.63;0.52;;;12.90;99.90;;;;;;5089165;28;20021;-76
2022/02/18 11:01:27;;;;;;;1.00;0.60;;;12.80;99.90;;;;;;5085087;28;20074;-76
2022/02/18 11:04:02;;;;;;;1.73;1.00;;;12.80;99.90;;;;;;5080563;28;20029;-77
2022/02/18 11:06:31;;;;;;;1.15;0.60;;;12.90;99.90;;;;;;5091333;28;20022;-76
2022/02/18 11:09:07;;;;;;;2.17;0.80;;;13.00;99.90;;;;;;5089824;28;20028;-76
2022/02/18 11:11:34;;;;;;;0.70;0.30;;;13.00;99.90;;;;;;5083787;28;20046;-75
2022/02/18 11:14:01;;;;;;;0.80;0.50;;;13.00;99.90;;;;;;5089580;28;20028;-76
2022/02/18 11:16:30;;;;;;;2.40;0.88;;;13.00;99.90;;;;;;5091733;28;20028;-75
2022/02/18 11:18:57;;;;;;;0.50;0.50;;;13.00;99.90;;;;;;5082315;28;20028;-76
2022/02/18 11:21:23;;;;;;;2.60;0.70;;;13.00;99.90;;;;;;5087565;28;20366;-77
2022/02/18 11:23:50;;;;;;;1.15;0.60;;;13.10;99.90;;;;;;5087033;28;20044;-80
2022/02/18 11:26:18;;;;;;;1.75;0.50;;;13.10;99.90;;;;;;5092527;28;20111;-79
2022/02/18 11:28:45;;;;;;;1.35;0.40;;;13.10;99.90;;;;;;5087961;28;20377;-80
2022/02/18 11:31:37;;;;;;;1.25;0.75;;;13.00;99.90;;;;;;5090415;28;20111;-79
2022/02/18 11:34:45;;;;;;;1.23;0.88;;;13.00;99.90;;;;;;5087978;28;20031;-77
2022/02/18 11:37:35;;;;;;;0.75;0.35;;;13.00;99.90;;;;;;5086834;28;20208;-78
2022/02/18 11:40:22;;;;;;;1.35;0.60;;;13.00;99.90;;;;;;5091090;28;20016;-77
2022/02/18 11:43:28;;;;;;;1.35;0.60;;;13.00;99.90;;;;;;5088774;28;20388;-79
2022/02/18 11:45:55;;;;;;;1.00;0.77;;;13.00;99.90;;;;;;5090217;28;20048;-77
2022/02/18 11:48:37;;;;;;;1.95;0.80;;;13.00;99.90;;;;;;5088163;28;20016;-78
2022/02/18 11:51:07;;;;;;;4.05;0.90;;;12.90;99.90;;;;;;5085961;28;20032;-79
2022/02/18 11:53:43;;;;;;;1.25;0.60;;;12.90;99.90;;;;;;5085875;28;20020;-79
2022/02/18 11:56:09;;;;;;;3.78;0.90;;;13.00;99.90;;;;;;5088243;28;20450;-78
2022/02/18 11:58:54;;;;;;;1.65;1.10;;;12.90;99.90;;;;;;5083163;28;20017;-77
2022/02/18 12:02:03;;;;;;;2.42;0.70;;;12.90;99.90;;;;;;5089423;28;20020;-78
2022/02/18 12:04:30;;;;;;;0.88;0.70;;;12.90;99.90;;;;;;5081143;28;20077;-77
2022/02/18 12:07:17;;;;;;;2.15;0.60;;;12.90;99.90;;;;;;5088057;28;20017;-77
2022/02/18 12:09:49;;;;;;;0.70;0.70;;;13.00;99.90;;;;;;5083660;28;20119;-77
2022/02/18 12:12:28;;;;;;;2.30;0.93;;;13.00;99.90;;;;;;5090237;28;20264;-77
2022/02/18 12:14:55;;;;;;;2.80;0.77;;;12.90;99.90;;;;;;5085226;28;20028;-78
2022/02/18 12:17:22;;;;;;;0.82;0.50;;;13.00;99.90;;;;;;5086146;28;20036;-78
2022/02/18 12:19:48;;;;;;;1.88;0.70;;;13.00;99.90;;;;;;5087466;28;20376;-78
2022/02/18 12:22:13;;;;;;;2.85;0.90;;;13.00;99.90;;;;;;5091423;28;20401;-76
2022/02/18 12:24:46;;;;;;;1.67;0.60;;;13.00;99.90;;;;;;5092791;28;20427;-79
2022/02/18 12:27:23;;;;;;;0.93;0.70;;;13.00;99.90;;;;;;5093890;28;20017;-78
2022/02/18 12:29:50;;;;;;;1.48;0.82;;;13.00;99.90;;;;;;5085637;28;20082;-79
2022/02/18 12:32:17;;;;;;;1.27;0.85;;;13.10;99.90;;;;;;5090899;28;20111;-78
2022/02/18 12:34:43;;;;;;;3.20;0.95;;;13.00;99.90;;;;;;5093394;28;20032;-77
2022/02/18 12:37:11;;;;;;;3.28;0.60;;;13.00;99.90;;;;;;5087178;28;20042;-79
2022/02/18 12:40:05;;;;;;;2.17;0.70;;;13.00;99.90;;;;;;5090607;28;20016;-78
2022/02/18 12:42:32;;;;;;;1.15;0.90;;;13.00;99.90;;;;;;5092771;28;20036;-78
2022/02/18 12:45:00;;;;;;;1.13;0.60;;;13.10;99.90;;;;;;5089566;28;20383;-78
2022/02/18 12:47:32;;;;;;;1.35;0.70;;;13.20;99.90;;;;;;5088125;28;20423;-77